createdAt,value
2018-05-29T01:24:29.341Z,6.79
2018-05-29T01:24:29.407Z,6.12
2018-05-29T01:24:29.411Z,6.12
2018-05-29T01:24:29.415Z,6.12
2018-05-29T01:24:29.518Z,6.12
2018-05-29T01:24:29.529Z,6.12
2018-05-29T01:24:29.545Z,6.12
2018-05-29T01:24:29.561Z,6.12
2018-05-29T01:24:29.586Z,6.12
2018-05-29T01:24:29.669Z,6.12
2018-05-29T01:24:29.681Z,6.12
2018-05-29T01:24:29.710Z,6.12
2018-05-29T01:24:29.747Z,6.12
2018-05-29T01:24:29.749Z,6.12
2018-05-29T01:24:29.799Z,6.12
2018-05-29T01:24:29.884Z,6.12
2018-05-29T01:24:29.908Z,6.12
2018-05-29T01:24:29.919Z,6.12
2018-05-29T01:24:29.960Z,6.12
2018-05-29T01:24:29.975Z,6.12
2018-05-29T01:24:30.038Z,6.12
2018-05-29T01:24:30.046Z,6.12
2018-05-29T01:24:30.082Z,6.12
2018-05-29T01:24:30.084Z,6.12
2018-05-29T01:24:30.146Z,6.12
2018-05-29T01:24:30.155Z,6.12
2018-05-29T01:24:30.175Z,6.12
2018-05-29T01:24:30.238Z,6.12
2018-05-29T01:24:30.265Z,6.12
2018-05-29T01:24:30.282Z,6.12
2018-05-29T01:24:30.309Z,6.12
2018-05-29T01:24:30.343Z,6.12
2018-05-29T01:24:30.358Z,6.12
2018-05-29T01:24:30.372Z,6.12
2018-05-29T01:24:30.416Z,6.12
2018-05-29T01:30:24.262Z,6.2
2018-05-29T01:36:19.188Z,5.81
2018-05-29T01:42:14.215Z,6.52
2018-05-29T01:48:09.330Z,5.65
2018-05-29T01:54:04.395Z,5.96
2018-05-29T01:59:59.510Z,5.94
2018-05-29T02:05:54.503Z,6
2018-05-29T02:11:49.429Z,6.73
2018-05-29T02:17:44.213Z,5.68
2018-05-29T02:23:39.277Z,6.39
2018-05-29T02:29:34.299Z,5.57
2018-05-29T02:35:29.249Z,6.91
2018-05-29T02:41:24.251Z,6.01
2018-05-29T02:47:19.283Z,5.97
2018-05-29T02:53:14.283Z,6
2018-05-29T02:59:09.293Z,6.38
2018-05-29T03:05:04.852Z,5.98
2018-05-29T03:10:59.286Z,6.18
2018-05-29T03:16:54.436Z,6.53
2018-05-29T03:22:49.337Z,5.2
2018-05-29T03:28:44.317Z,6.76
2018-05-29T03:34:39.311Z,5.86
2018-05-29T03:40:34.329Z,5.46
2018-05-29T03:46:29.353Z,5.88
2018-05-29T03:52:24.306Z,5.03
2018-05-29T03:58:19.323Z,5.51
2018-05-29T04:04:14.319Z,6.5
2018-05-29T04:10:09.329Z,5.32
2018-05-29T04:16:04.411Z,5.61
2018-05-29T04:21:59.333Z,5.2
2018-05-29T04:27:54.395Z,5.71
2018-05-29T04:33:49.343Z,5.24
2018-05-29T04:39:44.451Z,6.28
2018-05-29T04:45:39.566Z,5.77
2018-05-29T04:51:34.330Z,5.34
2018-05-29T04:57:29.356Z,5.39
2018-05-29T05:03:24.379Z,6.05
2018-05-29T05:09:19.527Z,5.26
2018-05-29T05:15:14.363Z,5.82
2018-05-29T05:21:09.608Z,6.51
2018-05-29T05:27:04.412Z,6.33
2018-05-29T05:32:59.444Z,6.34
2018-05-29T05:38:54.411Z,6
2018-05-29T05:44:49.413Z,6.28
2018-05-29T05:50:44.389Z,6.33
2018-05-29T05:56:39.439Z,6.88
2018-05-29T06:02:34.430Z,6.35
2018-05-29T06:08:29.587Z,6.91
2018-05-29T06:14:24.432Z,7.91
2018-05-29T06:20:19.886Z,5.64
2018-05-29T06:26:14.426Z,5.43
2018-05-29T06:32:09.575Z,5.91
2018-05-29T06:38:04.649Z,5.34
2018-05-29T06:43:59.478Z,7.1
2018-05-29T06:49:54.491Z,7.57
2018-05-29T06:55:49.468Z,6.75
2018-05-29T07:01:44.469Z,7.43
2018-05-29T07:07:39.484Z,6.79
2018-05-29T07:13:34.531Z,6.51
2018-05-29T07:19:29.537Z,6.75
2018-05-29T07:25:24.515Z,6.66
2018-05-29T07:31:19.690Z,8.88
2018-05-29T07:37:14.558Z,7.82
2018-05-29T07:43:09.521Z,9.52
2018-05-29T07:49:04.523Z,8.4
2018-05-29T07:54:59.558Z,9.91
2018-05-29T08:00:54.532Z,11.14
2018-05-29T08:06:49.567Z,11.26
2018-05-29T08:12:44.552Z,8.68
2018-05-29T08:18:39.603Z,8.97
2018-05-29T08:24:34.638Z,8.45
2018-05-29T08:30:29.589Z,7.07
2018-05-29T08:36:24.563Z,7.13
2018-05-29T08:42:19.711Z,6.32
2018-05-29T08:48:14.761Z,6.93
2018-05-29T08:54:09.624Z,6.7
2018-05-29T09:00:05.418Z,7.5
2018-05-29T09:05:59.625Z,7.44
2018-05-29T09:11:54.680Z,5.92
2018-05-29T09:17:49.601Z,6.07
2018-05-29T09:23:44.620Z,6.46
2018-05-29T09:29:39.692Z,6.48
2018-05-29T09:35:34.726Z,6.95
2018-05-29T09:41:29.652Z,5.35
2018-05-29T09:47:24.669Z,7.09
2018-05-29T09:53:19.686Z,5.8
2018-05-29T09:59:14.657Z,5.77
2018-05-29T10:05:09.655Z,6.29
2018-05-29T10:11:04.646Z,5.92
2018-05-29T10:16:59.722Z,6.24
2018-05-29T10:22:54.688Z,4.7
2018-05-29T10:28:49.752Z,5.33
2018-05-29T10:34:44.664Z,4.41
2018-05-29T10:40:39.692Z,3.87
2018-05-29T10:46:34.712Z,3
2018-05-29T10:52:29.748Z,4.39
2018-05-29T10:58:24.758Z,3.78
2018-05-29T11:04:19.760Z,4.02
2018-05-29T11:10:14.781Z,4.41
2018-05-29T11:16:09.733Z,4.08
2018-05-29T11:22:04.724Z,4.83
2018-05-29T11:27:59.752Z,3.97
2018-05-29T11:33:54.762Z,3.99
2018-05-29T11:39:49.803Z,4.45
2018-05-29T11:45:44.756Z,3.24
2018-05-29T11:51:39.732Z,3.63
2018-05-29T11:57:34.845Z,3.65
2018-05-29T12:03:29.762Z,3.16
2018-05-29T12:09:24.759Z,3.69
2018-05-29T12:15:19.779Z,3.75
2018-05-29T12:21:14.787Z,3.99
2018-05-29T12:27:09.831Z,4.19
2018-05-29T12:33:04.825Z,4.18
2018-05-29T12:38:59.790Z,3.92
2018-05-29T12:44:54.866Z,3.98
2018-05-29T12:50:49.896Z,3.56
2018-05-29T12:56:44.853Z,3.9
2018-05-29T13:02:39.831Z,3.85
2018-05-29T13:08:34.841Z,3.29
2018-05-29T13:14:29.825Z,3.96
2018-05-29T13:20:24.922Z,3.2
2018-05-29T13:26:19.855Z,3.74
2018-05-29T13:32:14.864Z,3.38
2018-05-29T13:38:09.840Z,3.07
2018-05-29T13:44:04.956Z,3.83
2018-05-29T13:49:59.906Z,3.44
2018-05-29T13:55:54.895Z,3.28
2018-05-29T14:01:49.898Z,3.37
2018-05-29T14:07:44.888Z,3.53
2018-05-29T14:13:39.911Z,3.36
2018-05-29T14:19:34.896Z,3.15
2018-05-29T14:25:29.905Z,3.13
2018-05-29T14:31:24.931Z,3.49
2018-05-29T14:37:19.898Z,3.26
2018-05-29T14:43:14.928Z,3.19
2018-05-29T14:49:09.926Z,2.93
2018-05-29T14:55:04.935Z,3.46
2018-05-29T15:00:59.963Z,3.46
2018-05-29T15:06:54.961Z,4.06
2018-05-29T15:12:49.951Z,3.19
2018-05-29T15:18:44.959Z,2.47
2018-05-29T15:24:40.036Z,3.27
2018-05-29T15:30:35.007Z,2.75
2018-05-29T15:36:29.977Z,2.67
2018-05-29T15:42:25.016Z,2.62
2018-05-29T15:48:20.000Z,3.25
2018-05-29T15:54:15.002Z,2.98
2018-05-29T16:00:10.062Z,2.85
2018-05-29T16:06:04.996Z,3.17
2018-05-29T16:12:00.042Z,3.12
2018-05-29T16:17:54.997Z,2.77
2018-05-29T16:23:50.018Z,4
2018-05-29T16:29:45.029Z,3.41
2018-05-29T16:35:40.053Z,3.65
2018-05-29T16:41:35.083Z,3.78
2018-05-29T16:47:30.031Z,3.13
2018-05-29T16:53:25.050Z,3.17
2018-05-29T16:59:20.112Z,2.99
2018-05-29T17:05:15.051Z,3.1
2018-05-29T17:11:10.063Z,3.21
2018-05-29T17:17:05.093Z,3.3
2018-05-29T17:23:00.116Z,3.19
2018-05-29T17:28:55.106Z,3.82
2018-05-29T17:34:50.078Z,3.87
2018-05-29T17:40:45.095Z,3.7
2018-05-29T17:46:40.123Z,4.79
2018-05-29T17:52:35.114Z,4.43
2018-05-29T17:58:30.119Z,4.85
2018-05-29T18:04:25.112Z,5.34
2018-05-29T18:10:20.172Z,5.55
2018-05-29T18:16:15.153Z,4.73
2018-05-29T18:22:10.196Z,5.68
2018-05-29T18:28:05.142Z,6.16
2018-05-29T18:34:00.169Z,6.18
2018-05-29T18:39:55.161Z,7.3
2018-05-29T18:45:50.151Z,4.83
2018-05-29T18:51:45.185Z,5.68
2018-05-29T18:57:40.181Z,6
2018-05-29T19:03:35.265Z,5.27
2018-05-29T19:09:30.216Z,5.84
2018-05-29T19:15:25.260Z,5.14
2018-05-29T19:21:20.239Z,5.33
2018-05-29T19:27:15.230Z,4.18
2018-05-29T19:33:10.246Z,4.85
2018-05-29T19:39:05.201Z,4.3
2018-05-29T19:45:00.220Z,5.15
2018-05-29T19:50:55.261Z,4.73
2018-05-29T19:56:50.266Z,5.37
2018-05-29T20:02:45.259Z,5.25
2018-05-29T20:08:40.249Z,4.75
2018-05-29T20:14:35.307Z,4.98
2018-05-29T20:20:30.255Z,4.39
2018-05-29T20:26:25.291Z,4.94
2018-05-29T20:32:20.292Z,5.05
2018-05-29T20:38:15.281Z,4.13
2018-05-29T20:44:10.267Z,4.53
2018-05-29T20:50:05.283Z,4.48
2018-05-29T20:56:00.307Z,4.42
2018-05-29T21:01:55.286Z,4.44
2018-05-29T21:07:50.286Z,4.53
2018-05-29T21:13:45.330Z,4.74
2018-05-29T21:19:40.309Z,4.57
2018-05-29T21:25:35.319Z,4.72
2018-05-29T21:31:30.329Z,5.73
2018-05-29T21:37:25.374Z,4.55
2018-05-29T21:43:20.361Z,5.45
2018-05-29T21:49:15.351Z,5.61
2018-05-29T21:55:10.391Z,5.14
2018-05-29T22:01:05.394Z,5.1
2018-05-29T22:07:00.367Z,4.95
2018-05-29T22:12:55.377Z,5.85
2018-05-29T22:18:50.351Z,5.41
2018-05-29T22:24:45.423Z,5.25
2018-05-29T22:30:40.396Z,5.94
2018-05-29T22:36:35.393Z,5.64
2018-05-29T22:42:30.373Z,5.21
2018-05-29T22:48:25.373Z,5.06
2018-05-29T22:54:20.422Z,5.13
2018-05-29T23:00:15.450Z,4.53
2018-05-29T23:06:10.445Z,4.62
2018-05-29T23:12:05.413Z,5.2
2018-05-29T23:18:00.452Z,4.57
2018-05-29T23:23:55.437Z,5.25
2018-05-29T23:29:50.513Z,5.17
2018-05-29T23:35:45.477Z,4.9
2018-05-29T23:41:40.433Z,5.49
2018-05-29T23:47:35.480Z,4.8
2018-05-29T23:53:30.466Z,5.24
2018-05-29T23:59:25.444Z,5.14
